createdAt,value
2023-02-25T00:00:11.009Z,4.45
2023-02-25T00:03:15.404Z,4.21
2023-02-25T00:06:19.365Z,4.16
2023-02-25T00:09:22.069Z,4.18
2023-02-25T00:12:24.666Z,4.20
2023-02-25T00:15:27.377Z,4.07
2023-02-25T00:18:30.944Z,4.19
2023-02-25T00:21:34.894Z,4.30
2023-02-25T00:24:37.505Z,4.36
2023-02-25T00:27:40.095Z,4.26
2023-02-25T00:30:43.468Z,4.60
2023-02-25T00:33:46.600Z,4.43
2023-02-25T00:36:50.678Z,4.53
2023-02-25T00:39:53.361Z,4.52
2023-02-25T00:42:55.945Z,4.38
2023-02-25T00:45:59.842Z,4.37
2023-02-25T00:49:02.587Z,4.46
2023-02-25T00:52:07.384Z,4.32
2023-02-25T00:55:10.819Z,4.34
2023-02-25T00:58:13.416Z,4.43
2023-02-25T01:01:18.997Z,4.47
2023-02-25T01:04:22.181Z,4.62
2023-02-25T01:07:26.295Z,4.55
2023-02-25T01:10:29.362Z,4.54
2023-02-25T01:13:31.956Z,4.51
2023-02-25T01:16:36.172Z,4.62
2023-02-25T01:19:38.881Z,4.56
2023-02-25T01:22:42.856Z,4.36
2023-02-25T01:25:45.437Z,4.46
2023-02-25T01:28:48.017Z,4.43
2023-02-25T01:31:53.155Z,4.17
2023-02-25T01:34:56.520Z,4.26
2023-02-25T01:38:00.496Z,4.34
2023-02-25T01:41:04.048Z,4.42
2023-02-25T01:44:10.339Z,4.44
2023-02-25T01:47:21.155Z,4.45
2023-02-25T01:50:26.366Z,4.78
2023-02-25T01:53:34.344Z,4.35
2023-02-25T01:56:39.603Z,4.19
2023-02-25T01:59:43.982Z,4.31
2023-02-25T02:02:49.282Z,4.50
2023-02-25T02:06:00.768Z,4.58
2023-02-25T02:09:07.409Z,4.51
2023-02-25T02:12:10.006Z,4.36
2023-02-25T02:15:15.313Z,4.46
2023-02-25T02:18:19.131Z,4.47
2023-02-25T02:21:41.524Z,4.17
2023-02-25T02:25:29.605Z,4.52
2023-02-25T02:29:04.634Z,4.41
2023-02-25T02:32:16.240Z,4.49
2023-02-25T02:35:23.247Z,4.44
2023-02-25T02:38:34.688Z,4.38
2023-02-25T02:41:40.936Z,4.67
2023-02-25T02:44:53.103Z,4.63
2023-02-25T02:48:01.341Z,4.62
2023-02-25T02:51:10.340Z,4.50
2023-02-25T02:54:15.573Z,4.66
2023-02-25T02:57:22.299Z,4.33
2023-02-25T03:00:28.275Z,4.41
2023-02-25T03:03:38.291Z,4.58
2023-02-25T03:06:44.371Z,4.35
2023-02-25T03:09:50.326Z,4.45
2023-02-25T03:12:53.009Z,4.13
2023-02-25T03:15:56.830Z,4.22
2023-02-25T03:19:07.477Z,4.25
2023-02-25T03:22:14.287Z,4.15
2023-02-25T03:25:21.960Z,4.37
2023-02-25T03:28:31.481Z,4.28
2023-02-25T03:31:38.359Z,3.89
2023-02-25T03:34:45.357Z,3.96
2023-02-25T03:37:51.684Z,4.34
2023-02-25T03:40:57.069Z,4.18
2023-02-25T03:44:00.529Z,4.44
2023-02-25T03:47:05.362Z,4.41
2023-02-25T03:50:13.356Z,4.49
2023-02-25T03:53:15.984Z,4.50
2023-02-25T03:56:18.642Z,4.11
2023-02-25T03:59:23.789Z,4.39
2023-02-25T04:02:29.334Z,4.60
2023-02-25T04:05:33.576Z,4.68
2023-02-25T04:08:36.140Z,4.81
2023-02-25T04:11:38.721Z,4.83
2023-02-25T04:14:41.337Z,4.64
2023-02-25T04:17:45.105Z,4.59
2023-02-25T04:20:49.046Z,4.59
2023-02-25T04:23:51.644Z,4.58
2023-02-25T04:26:58.237Z,4.29
2023-02-25T04:30:01.144Z,4.33
2023-02-25T04:33:04.067Z,4.23
2023-02-25T04:36:23.344Z,4.22
2023-02-25T04:39:26.272Z,3.71
2023-02-25T04:42:28.886Z,3.87
2023-02-25T04:45:31.475Z,3.84
2023-02-25T04:48:34.024Z,3.53
2023-02-25T04:51:39.644Z,3.54
2023-02-25T04:54:42.441Z,3.64
2023-02-25T04:57:45.007Z,3.45
2023-02-25T05:00:49.234Z,3.61
2023-02-25T05:03:56.697Z,3.46
2023-02-25T05:07:00.718Z,3.41
2023-02-25T05:10:03.333Z,3.59
2023-02-25T05:13:05.940Z,3.60
2023-02-25T05:16:11.902Z,3.43
2023-02-25T05:19:17.269Z,3.48
2023-02-25T05:22:22.112Z,3.63
2023-02-25T05:25:25.049Z,3.46
2023-02-25T05:28:27.724Z,3.35
2023-02-25T05:31:30.396Z,3.50
2023-02-25T05:34:33.093Z,3.52
2023-02-25T05:37:37.126Z,3.54
2023-02-25T05:40:39.809Z,3.74
2023-02-25T05:43:42.971Z,3.51
2023-02-25T05:46:45.576Z,3.58
2023-02-25T05:49:48.244Z,3.56
2023-02-25T05:52:52.175Z,3.73
2023-02-25T05:55:55.659Z,3.81
2023-02-25T05:58:58.279Z,3.77
2023-02-25T06:02:00.949Z,3.76
2023-02-25T06:05:04.097Z,3.82
2023-02-25T06:08:08.720Z,3.76
2023-02-25T06:11:14.540Z,3.72
2023-02-25T06:14:17.424Z,3.74
2023-02-25T06:17:20.016Z,3.81
2023-02-25T06:20:25.139Z,3.84
2023-02-25T06:23:29.073Z,3.70
2023-02-25T06:26:31.809Z,3.57
2023-02-25T06:29:34.382Z,3.90
2023-02-25T06:32:37.213Z,4.02
2023-02-25T06:35:39.931Z,4.18
2023-02-25T06:38:46.048Z,3.90
2023-02-25T06:41:49.406Z,3.92
2023-02-25T06:44:51.984Z,4.03
2023-02-25T06:47:54.588Z,3.99
2023-02-25T06:50:57.182Z,3.92
2023-02-25T06:54:04.507Z,4.04
2023-02-25T06:57:07.105Z,4.03
2023-02-25T07:00:10.895Z,3.86
2023-02-25T07:03:13.750Z,3.42
2023-02-25T07:06:16.343Z,3.37
2023-02-25T07:09:20.271Z,3.42
2023-02-25T07:12:22.879Z,3.05
2023-02-25T07:15:25.471Z,2.99
2023-02-25T07:18:28.063Z,3.11
2023-02-25T07:21:33.695Z,3.19
2023-02-25T07:24:37.980Z,3.06
2023-02-25T07:27:44.169Z,2.90
2023-02-25T07:30:47.508Z,3.20
2023-02-25T07:33:50.357Z,3.31
2023-02-25T07:36:53.016Z,3.00
2023-02-25T07:39:59.604Z,3.12
2023-02-25T07:43:03.602Z,3.41
2023-02-25T07:46:06.794Z,3.56
2023-02-25T07:49:09.395Z,3.39
2023-02-25T07:52:12.026Z,3.40
2023-02-25T07:55:15.999Z,3.45
2023-02-25T07:58:18.606Z,3.26
2023-02-25T08:01:24.617Z,3.59
2023-02-25T08:04:29.908Z,3.60
2023-02-25T08:07:32.583Z,3.60
2023-02-25T08:10:37.711Z,3.32
2023-02-25T08:13:41.317Z,3.67
2023-02-25T08:16:43.890Z,3.67
2023-02-25T08:19:46.497Z,3.79
2023-02-25T08:22:49.129Z,3.61
2023-02-25T08:25:55.897Z,3.61
2023-02-25T08:28:58.746Z,3.44
2023-02-25T08:32:01.494Z,3.52
2023-02-25T08:35:05.289Z,3.63
2023-02-25T08:38:08.645Z,3.40
2023-02-25T08:41:13.294Z,3.43
2023-02-25T08:44:16.041Z,3.15
2023-02-25T08:47:18.846Z,3.31
2023-02-25T08:50:23.743Z,3.33
2023-02-25T08:53:26.330Z,3.14
2023-02-25T08:56:30.611Z,3.14
2023-02-25T08:59:35.884Z,3.64
2023-02-25T09:02:39.829Z,4.09
2023-02-25T09:05:42.408Z,4.08
2023-02-25T09:08:45.005Z,4.16
2023-02-25T09:11:49.990Z,3.74
2023-02-25T09:14:52.704Z,3.57
2023-02-25T09:17:55.283Z,3.60
2023-02-25T09:20:57.871Z,3.64
2023-02-25T09:24:00.684Z,3.78
2023-02-25T09:27:07.830Z,3.54
2023-02-25T09:30:11.466Z,3.57
2023-02-25T09:33:14.122Z,3.09
2023-02-25T09:36:19.289Z,2.90
2023-02-25T09:39:21.850Z,2.93
2023-02-25T09:42:28.292Z,3.25
2023-02-25T09:45:33.862Z,3.48
2023-02-25T09:48:41.557Z,3.29
2023-02-25T09:51:48.380Z,3.60
2023-02-25T09:54:56.602Z,3.60
2023-02-25T09:58:07.380Z,3.26
2023-02-25T10:01:19.178Z,3.37
2023-02-25T10:04:30.816Z,3.65
2023-02-25T10:07:37.033Z,3.94
2023-02-25T10:10:46.651Z,4.60
2023-02-25T10:13:57.379Z,4.32
2023-02-25T10:17:07.332Z,4.38
2023-02-25T10:20:34.840Z,5.34
2023-02-25T10:23:52.041Z,5.53
2023-02-25T10:26:59.445Z,6.09
2023-02-25T10:30:07.712Z,5.90
2023-02-25T10:33:17.523Z,5.54
2023-02-25T10:36:25.553Z,5.31
2023-02-25T10:39:31.204Z,4.85
2023-02-25T10:42:34.996Z,5.18
2023-02-25T10:45:41.294Z,4.72
2023-02-25T10:48:48.517Z,4.68
2023-02-25T10:52:15.318Z,4.09
2023-02-25T10:55:27.626Z,4.19
2023-02-25T10:58:37.904Z,4.42
2023-02-25T11:01:43.785Z,4.29
2023-02-25T11:04:46.942Z,4.45
2023-02-25T11:07:49.932Z,3.89
2023-02-25T11:11:02.915Z,4.04
2023-02-25T11:14:07.290Z,3.73
2023-02-25T11:17:20.223Z,3.67
2023-02-25T11:20:25.855Z,3.94
2023-02-25T11:23:33.380Z,4.34
2023-02-25T11:26:39.251Z,4.52
2023-02-25T11:29:44.724Z,4.94
2023-02-25T11:32:53.742Z,4.69
2023-02-25T11:35:59.753Z,4.74
2023-02-25T11:39:09.009Z,5.28
2023-02-25T11:42:24.144Z,5.64
2023-02-25T11:45:30.796Z,7.55
2023-02-25T11:48:46.903Z,8.72
2023-02-25T11:51:57.412Z,8.82
2023-02-25T11:55:15.052Z,7.39
2023-02-25T11:58:30.274Z,6.18
2023-02-25T12:01:43.401Z,5.77
2023-02-25T12:05:18.371Z,7.12
2023-02-25T12:08:51.257Z,7.90
2023-02-25T12:12:12.724Z,6.70
2023-02-25T12:15:48.892Z,6.80
2023-02-25T12:19:31.653Z,6.90
2023-02-25T12:22:58.677Z,7.84
2023-02-25T12:26:10.802Z,9.35
2023-02-25T12:29:39.429Z,8.80
2023-02-25T12:32:53.670Z,7.53
2023-02-25T12:36:24.680Z,7.21
2023-02-25T12:39:41.929Z,6.37
2023-02-25T12:43:01.887Z,7.07
2023-02-25T12:46:27.919Z,7.33
2023-02-25T12:49:47.856Z,7.16
2023-02-25T12:53:06.224Z,7.07
2023-02-25T12:56:44.517Z,6.61
2023-02-25T13:00:27.435Z,7.13
2023-02-25T13:03:42.908Z,8.20
2023-02-25T13:07:01.270Z,9.51
2023-02-25T13:10:30.736Z,9.69
2023-02-25T13:14:09.418Z,8.44
2023-02-25T13:17:43.153Z,7.45
2023-02-25T13:20:58.346Z,8.05
2023-02-25T13:24:22.650Z,8.41
2023-02-25T13:27:40.860Z,9.79
2023-02-25T13:30:53.522Z,10.81
2023-02-25T13:34:14.323Z,11.50
2023-02-25T13:37:29.340Z,12.56
2023-02-25T13:40:41.911Z,11.29
2023-02-25T13:44:01.549Z,12.23
2023-02-25T13:47:21.799Z,11.30
2023-02-25T13:51:02.279Z,10.40
2023-02-25T13:54:20.956Z,12.00
2023-02-25T13:57:36.136Z,12.02
2023-02-25T14:01:00.818Z,12.96
2023-02-25T14:04:36.049Z,12.52
2023-02-25T14:08:09.031Z,10.81
2023-02-25T14:11:31.077Z,9.81
2023-02-25T14:14:48.183Z,10.06
2023-02-25T14:18:05.698Z,9.94
2023-02-25T14:21:31.868Z,8.14
2023-02-25T14:24:43.076Z,7.84
2023-02-25T14:27:52.094Z,7.13
2023-02-25T14:31:08.201Z,7.14
2023-02-25T14:34:28.138Z,7.58
2023-02-25T14:37:38.264Z,7.52
2023-02-25T14:40:48.912Z,6.97
2023-02-25T14:43:57.210Z,6.71
2023-02-25T14:47:06.292Z,6.77
2023-02-25T14:50:15.682Z,6.80
2023-02-25T14:54:09.389Z,6.21
2023-02-25T14:57:49.023Z,6.27
2023-02-25T15:01:23.550Z,6.87
2023-02-25T15:04:41.498Z,6.72
2023-02-25T15:07:57.689Z,6.06
2023-02-25T15:11:15.143Z,6.19
2023-02-25T15:14:59.156Z,6.09
2023-02-25T15:18:29.137Z,6.12
2023-02-25T15:21:43.967Z,5.74
2023-02-25T15:24:47.274Z,5.96
2023-02-25T15:27:51.071Z,6.01
2023-02-25T15:31:28.358Z,5.67
2023-02-25T15:34:35.901Z,5.58
2023-02-25T15:37:59.023Z,4.85
2023-02-25T15:41:02.563Z,5.27
2023-02-25T15:44:34.924Z,5.12
2023-02-25T15:47:41.522Z,5.18
2023-02-25T15:50:54.183Z,5.18
2023-02-25T15:53:57.247Z,5.32
2023-02-25T15:57:01.374Z,4.76
2023-02-25T16:00:10.975Z,5.21
2023-02-25T16:03:41.956Z,5.38
2023-02-25T16:06:44.783Z,5.25
2023-02-25T16:09:54.481Z,5.44
2023-02-25T16:12:58.587Z,5.31
2023-02-25T16:16:03.959Z,5.11
2023-02-25T16:19:10.580Z,5.08
2023-02-25T16:22:17.346Z,4.69
2023-02-25T16:25:27.232Z,4.72
2023-02-25T16:28:44.088Z,4.80
2023-02-25T16:31:51.912Z,4.84
2023-02-25T16:34:59.826Z,4.77
2023-02-25T16:38:10.150Z,4.84
2023-02-25T16:41:13.936Z,4.96
2023-02-25T16:44:20.053Z,4.69
2023-02-25T16:47:26.514Z,4.26
2023-02-25T16:50:33.037Z,4.50
2023-02-25T16:53:35.696Z,4.22
2023-02-25T16:56:38.593Z,4.22
2023-02-25T16:59:41.176Z,3.99
2023-02-25T17:02:46.357Z,4.33
2023-02-25T17:06:04.302Z,4.20
2023-02-25T17:09:06.883Z,4.18
2023-02-25T17:12:16.141Z,4.33
2023-02-25T17:15:22.933Z,4.15
2023-02-25T17:18:30.961Z,4.19
2023-02-25T17:21:37.253Z,4.13
2023-02-25T17:24:40.280Z,4.21
2023-02-25T17:27:43.727Z,4.13
2023-02-25T17:30:47.314Z,3.96
2023-02-25T17:33:52.771Z,4.20
2023-02-25T17:36:59.252Z,4.22
2023-02-25T17:40:04.254Z,3.98
2023-02-25T17:43:21.295Z,4.13
2023-02-25T17:46:29.395Z,4.09
2023-02-25T17:49:34.039Z,4.12
2023-02-25T17:52:38.119Z,4.13
2023-02-25T17:55:40.704Z,4.19
2023-02-25T17:58:43.752Z,4.20
2023-02-25T18:01:48.963Z,4.10
2023-02-25T18:04:51.844Z,4.15
2023-02-25T18:08:17.434Z,4.19
2023-02-25T18:11:27.411Z,3.98
2023-02-25T18:14:35.722Z,4.03
2023-02-25T18:17:40.243Z,4.00
2023-02-25T18:20:46.189Z,3.84
2023-02-25T18:23:51.716Z,3.42
2023-02-25T18:27:20.085Z,3.64
2023-02-25T18:30:26.050Z,3.89
2023-02-25T18:33:28.753Z,3.60
2023-02-25T18:36:31.377Z,3.61
2023-02-25T18:39:38.033Z,3.56
2023-02-25T18:42:40.583Z,3.60
2023-02-25T18:45:43.267Z,3.71
2023-02-25T18:48:45.838Z,3.80
2023-02-25T18:51:50.733Z,3.65
2023-02-25T18:54:54.666Z,3.70
2023-02-25T18:57:57.525Z,3.17
2023-02-25T19:01:00.418Z,3.55
2023-02-25T19:04:03.055Z,3.26
2023-02-25T19:07:10.404Z,3.43
2023-02-25T19:10:17.046Z,3.37
2023-02-25T19:13:23.700Z,3.16
2023-02-25T19:16:26.643Z,3.20
2023-02-25T19:19:29.477Z,3.13
2023-02-25T19:22:32.071Z,3.40
2023-02-25T19:25:36.846Z,3.40
2023-02-25T19:28:39.518Z,3.42
2023-02-25T19:31:42.195Z,3.38
2023-02-25T19:34:45.128Z,3.24
2023-02-25T19:37:47.847Z,3.10
2023-02-25T19:40:51.783Z,3.11
2023-02-25T19:43:54.353Z,2.95
2023-02-25T19:46:56.976Z,2.52
2023-02-25T19:49:59.555Z,2.00
2023-02-25T19:53:03.467Z,1.75
2023-02-25T19:56:08.258Z,1.70
2023-02-25T19:59:11.907Z,1.68
2023-02-25T20:02:14.903Z,1.81
2023-02-25T20:05:17.680Z,2.01
2023-02-25T20:08:20.637Z,2.28
2023-02-25T20:11:24.563Z,2.47
2023-02-25T20:14:28.846Z,2.56
2023-02-25T20:17:32.543Z,2.61
2023-02-25T20:20:36.809Z,2.65
2023-02-25T20:23:39.939Z,2.60
2023-02-25T20:26:44.776Z,2.65
2023-02-25T20:29:47.890Z,2.80
2023-02-25T20:32:50.560Z,2.76
2023-02-25T20:35:53.397Z,2.69
2023-02-25T20:39:16.282Z,2.78
2023-02-25T20:42:21.771Z,2.75
2023-02-25T20:45:24.862Z,2.61
2023-02-25T20:48:29.574Z,2.66
2023-02-25T20:51:33.201Z,2.73
2023-02-25T20:54:35.804Z,2.57
2023-02-25T20:57:39.734Z,2.63
2023-02-25T21:00:42.371Z,2.65
2023-02-25T21:03:44.952Z,2.66
2023-02-25T21:06:47.546Z,2.61
2023-02-25T21:09:50.145Z,2.67
2023-02-25T21:12:55.153Z,2.82
2023-02-25T21:15:59.737Z,2.74
2023-02-25T21:19:02.297Z,2.66
2023-02-25T21:22:05.137Z,2.67
2023-02-25T21:25:08.345Z,2.69
2023-02-25T21:28:12.560Z,2.64
2023-02-25T21:31:17.128Z,2.71
2023-02-25T21:34:20.068Z,2.72
2023-02-25T21:37:22.648Z,2.52
2023-02-25T21:40:25.250Z,2.59
2023-02-25T21:43:29.168Z,2.49
2023-02-25T21:46:31.790Z,2.50
2023-02-25T21:49:34.942Z,2.46
2023-02-25T21:52:37.539Z,2.42
2023-02-25T21:55:40.181Z,2.44
2023-02-25T21:58:44.441Z,2.48
2023-02-25T22:01:47.096Z,2.34
2023-02-25T22:04:49.770Z,2.37
2023-02-25T22:07:52.396Z,2.42
2023-02-25T22:10:55.007Z,2.34
2023-02-25T22:13:59.984Z,2.48
2023-02-25T22:17:02.567Z,2.29
2023-02-25T22:20:05.564Z,2.37
2023-02-25T22:23:08.154Z,1.94
2023-02-25T22:26:13.439Z,2.19
2023-02-25T22:29:17.441Z,2.10
2023-02-25T22:32:20.356Z,2.20
2023-02-25T22:35:23.048Z,2.16
2023-02-25T22:38:27.085Z,2.19
2023-02-25T22:41:30.905Z,2.28
2023-02-25T22:44:35.965Z,2.18
2023-02-25T22:47:38.536Z,2.11
2023-02-25T22:50:43.551Z,1.98
2023-02-25T22:53:46.139Z,2.06
2023-02-25T22:56:49.601Z,2.09
2023-02-25T22:59:53.580Z,1.75
2023-02-25T23:02:56.201Z,1.86
2023-02-25T23:05:58.816Z,1.96
2023-02-25T23:09:01.493Z,1.83
2023-02-25T23:12:05.014Z,1.93
2023-02-25T23:15:10.346Z,2.10
2023-02-25T23:18:13.056Z,2.03
2023-02-25T23:21:19.054Z,1.99
2023-02-25T23:24:22.649Z,2.01
2023-02-25T23:27:25.756Z,1.95
2023-02-25T23:30:29.899Z,1.89
2023-02-25T23:33:33.157Z,1.97
2023-02-25T23:36:36.287Z,1.93
2023-02-25T23:39:39.729Z,1.98
2023-02-25T23:42:42.948Z,2.02
2023-02-25T23:45:47.470Z,1.97
2023-02-25T23:48:50.172Z,1.92
2023-02-25T23:51:52.834Z,1.91
2023-02-25T23:54:55.428Z,1.96
2023-02-25T23:57:58.020Z,1.94
